createdAt,value
2023-02-23T00:02:46.408Z,6.20
2023-02-23T00:07:49.421Z,4.70
2023-02-23T00:12:52.335Z,9.80
2023-02-23T00:17:56.661Z,6.80
2023-02-23T00:22:59.977Z,4.70
2023-02-23T00:28:02.878Z,5.40
2023-02-23T00:33:05.789Z,4.90
2023-02-23T00:38:08.896Z,5.90
2023-02-23T00:43:11.710Z,8.10
2023-02-23T00:48:14.807Z,8.50
2023-02-23T00:53:17.714Z,4.80
2023-02-23T00:58:20.991Z,5.40
2023-02-23T01:03:24.132Z,5.60
2023-02-23T01:08:28.630Z,6.40
2023-02-23T01:13:31.679Z,8.20
2023-02-23T01:18:35.910Z,7.50
2023-02-23T01:23:38.754Z,6.40
2023-02-23T01:28:41.718Z,4.90
2023-02-23T01:33:44.831Z,8.90
2023-02-23T01:38:49.388Z,9.60
2023-02-23T01:44:15.352Z,8.10
2023-02-23T01:49:23.583Z,7.10
2023-02-23T01:54:31.360Z,7.80
2023-02-23T01:59:43.239Z,17.60
2023-02-23T02:04:46.897Z,15.40
2023-02-23T02:10:11.251Z,9.90
2023-02-23T02:15:17.905Z,7.00
2023-02-23T02:20:43.056Z,7.80
2023-02-23T02:26:01.412Z,7.10
2023-02-23T02:31:24.193Z,6.60
2023-02-23T02:37:05.166Z,2.90
2023-02-23T02:42:50.352Z,10.40
2023-02-23T02:47:56.328Z,10.80
2023-02-23T02:53:05.996Z,10.90
2023-02-23T02:58:11.564Z,10.50
2023-02-23T03:03:47.131Z,7.50
2023-02-23T03:09:54.140Z,8.40
2023-02-23T03:16:04.335Z,6.20
2023-02-23T03:21:38.565Z,8.10
2023-02-23T03:27:11.266Z,7.50
2023-02-23T03:32:55.556Z,7.10
2023-02-23T03:38:28.960Z,5.40
2023-02-23T03:44:02.275Z,7.80
2023-02-23T03:49:28.632Z,9.00
2023-02-23T03:54:55.923Z,9.00
2023-02-23T04:00:22.674Z,10.70
2023-02-23T04:05:48.513Z,7.30
2023-02-23T04:11:20.172Z,8.20
2023-02-23T04:16:23.427Z,7.80
2023-02-23T04:21:26.405Z,6.40
2023-02-23T04:26:29.324Z,10.70
2023-02-23T04:31:32.305Z,11.80
2023-02-23T04:36:36.557Z,21.30
2023-02-23T04:41:39.458Z,6.90
2023-02-23T04:46:42.358Z,6.20
2023-02-23T04:51:45.366Z,9.00
2023-02-23T04:56:48.275Z,5.30
2023-02-23T05:01:51.175Z,5.30
2023-02-23T05:06:54.285Z,9.80
2023-02-23T05:11:57.396Z,7.30
2023-02-23T05:17:00.400Z,8.10
2023-02-23T05:22:03.681Z,6.20
2023-02-23T05:27:07.918Z,7.20
2023-02-23T05:32:10.965Z,6.00
2023-02-23T05:37:14.000Z,6.80
2023-02-23T05:42:17.496Z,6.70
2023-02-23T05:47:20.486Z,8.30
2023-02-23T05:52:24.920Z,5.30
2023-02-23T05:57:28.994Z,7.50
2023-02-23T06:02:32.471Z,8.50
2023-02-23T06:07:35.688Z,5.80
2023-02-23T06:12:38.598Z,6.30
2023-02-23T06:17:41.593Z,5.50
2023-02-23T06:22:45.009Z,5.90
2023-02-23T06:27:47.914Z,7.90
2023-02-23T06:32:50.819Z,6.10
2023-02-23T06:37:54.075Z,7.40
2023-02-23T06:42:57.241Z,8.10
2023-02-23T06:48:01.015Z,6.50
2023-02-23T06:53:04.080Z,6.10
2023-02-23T06:58:08.209Z,7.10
2023-02-23T07:03:11.518Z,4.50
2023-02-23T07:08:14.459Z,7.50
2023-02-23T07:13:17.433Z,5.90
2023-02-23T07:18:20.369Z,6.80
2023-02-23T07:23:23.453Z,11.00
2023-02-23T07:28:28.604Z,8.20
2023-02-23T07:33:32.862Z,6.40
2023-02-23T07:38:36.782Z,7.60
2023-02-23T07:43:40.083Z,5.30
2023-02-23T07:48:46.737Z,8.60
2023-02-23T07:53:49.880Z,8.80
2023-02-23T07:58:52.785Z,8.30
2023-02-23T08:03:55.744Z,8.80
2023-02-23T08:09:01.197Z,8.10
2023-02-23T08:14:04.169Z,10.20
2023-02-23T08:19:07.070Z,9.40
2023-02-23T08:24:11.095Z,11.60
2023-02-23T08:29:14.000Z,9.00
2023-02-23T08:34:17.825Z,8.50
2023-02-23T08:39:21.344Z,9.90
2023-02-23T08:44:24.351Z,11.60
2023-02-23T08:49:27.264Z,7.20
2023-02-23T08:54:30.874Z,10.00
2023-02-23T08:59:33.983Z,9.30
2023-02-23T09:04:37.708Z,8.60
2023-02-23T09:09:40.920Z,7.70
2023-02-23T09:14:43.820Z,9.70
2023-02-23T09:19:46.721Z,12.90
2023-02-23T09:24:49.643Z,8.80
2023-02-23T09:29:52.535Z,9.90
2023-02-23T09:34:55.846Z,11.80
2023-02-23T09:39:58.955Z,14.80
2023-02-23T09:45:17.219Z,12.60
2023-02-23T09:50:27.090Z,7.20
2023-02-23T09:55:31.020Z,12.80
2023-02-23T10:00:40.988Z,11.90
2023-02-23T10:05:48.521Z,10.70
2023-02-23T10:10:59.584Z,10.20
2023-02-23T10:16:37.731Z,10.10
2023-02-23T10:21:47.911Z,11.00
2023-02-23T10:26:55.742Z,10.70
2023-02-23T10:32:04.770Z,9.80
2023-02-23T10:42:20.325Z,10.80
2023-02-23T10:47:33.369Z,9.40
2023-02-23T10:52:44.625Z,11.60
2023-02-23T10:57:47.556Z,13.00
2023-02-23T11:02:50.416Z,11.60
2023-02-23T11:08:19.895Z,13.70
2023-02-23T11:13:26.678Z,13.70
2023-02-23T11:18:30.612Z,11.30
2023-02-23T11:23:37.031Z,13.00
2023-02-23T11:28:43.423Z,16.50
2023-02-23T11:33:48.513Z,11.40
2023-02-23T11:39:24.856Z,11.70
2023-02-23T11:44:28.137Z,13.00
2023-02-23T11:49:36.162Z,14.10
2023-02-23T11:54:52.172Z,10.10
2023-02-23T11:59:58.357Z,12.00
2023-02-23T12:05:10.016Z,10.70
2023-02-23T12:10:33.938Z,12.60
2023-02-23T12:15:55.602Z,13.20
2023-02-23T12:21:08.031Z,9.00
2023-02-23T12:26:19.081Z,10.40
2023-02-23T12:31:28.701Z,11.30
2023-02-23T12:36:51.157Z,11.20
2023-02-23T12:42:32.347Z,11.00
2023-02-23T12:47:56.347Z,9.20
2023-02-23T12:53:12.554Z,11.40
2023-02-23T12:58:23.621Z,9.60
2023-02-23T13:03:41.514Z,16.00
2023-02-23T13:09:02.759Z,10.50
2023-02-23T13:14:11.800Z,15.10
2023-02-23T13:19:47.164Z,11.20
2023-02-23T13:24:54.267Z,15.90
2023-02-23T13:29:59.350Z,13.30
2023-02-23T13:35:13.491Z,17.20
2023-02-23T13:40:35.884Z,15.70
2023-02-23T13:46:01.876Z,15.10
2023-02-23T13:51:18.486Z,19.30
2023-02-23T13:56:28.284Z,17.80
2023-02-23T14:07:00.410Z,13.20
2023-02-23T14:12:19.595Z,17.10
2023-02-23T14:22:25.308Z,14.70
2023-02-23T14:27:43.418Z,15.20
2023-02-23T14:32:49.357Z,17.10
2023-02-23T14:37:59.950Z,17.70
2023-02-23T14:43:04.271Z,15.90
2023-02-23T14:48:17.257Z,16.50
2023-02-23T14:53:24.405Z,18.90
2023-02-23T14:58:33.596Z,16.50
2023-02-23T15:03:37.380Z,20.30
2023-02-23T15:08:45.014Z,10.80
2023-02-23T15:13:50.529Z,18.70
2023-02-23T15:18:53.782Z,14.80
2023-02-23T15:24:16.753Z,16.50
2023-02-23T15:29:22.929Z,17.70
2023-02-23T15:34:30.208Z,21.30
2023-02-23T15:39:57.079Z,24.00
2023-02-23T15:45:03.472Z,14.70
2023-02-23T15:50:36.539Z,18.70
2023-02-23T15:55:43.910Z,18.70
2023-02-23T16:00:56.168Z,26.10
2023-02-23T16:06:04.054Z,29.60
2023-02-23T16:11:15.256Z,17.70
2023-02-23T16:16:25.472Z,31.50
2023-02-23T16:21:35.078Z,26.10
2023-02-23T16:26:41.179Z,24.20
2023-02-23T16:31:50.553Z,28.60
2023-02-23T16:36:59.581Z,17.50
2023-02-23T16:42:02.489Z,26.10
2023-02-23T16:47:06.821Z,23.50
2023-02-23T16:52:17.688Z,21.80
2023-02-23T16:57:22.687Z,16.00
2023-02-23T17:02:25.725Z,26.10
2023-02-23T17:07:28.782Z,24.00
2023-02-23T17:12:32.858Z,23.30
2023-02-23T17:17:36.547Z,18.40
2023-02-23T17:22:39.437Z,15.60
2023-02-23T17:27:42.338Z,23.90
2023-02-23T17:32:45.746Z,23.30
2023-02-23T17:37:49.579Z,22.50
2023-02-23T17:42:53.385Z,13.20
2023-02-23T17:47:57.847Z,13.30
2023-02-23T17:53:00.955Z,18.40
2023-02-23T17:58:03.859Z,23.80
2023-02-23T18:03:07.086Z,18.90
2023-02-23T18:08:09.970Z,24.80
2023-02-23T18:13:12.873Z,24.70
2023-02-23T18:18:15.883Z,18.40
2023-02-23T18:23:20.206Z,11.00
2023-02-23T18:28:23.124Z,22.10
2023-02-23T18:33:26.031Z,15.10
2023-02-23T18:38:28.933Z,18.30
2023-02-23T18:43:31.837Z,16.50
2023-02-23T18:48:35.765Z,15.20
2023-02-23T18:53:38.977Z,25.90
2023-02-23T18:58:44.703Z,20.50
2023-02-23T19:03:49.708Z,22.30
2023-02-23T19:08:57.415Z,17.30
2023-02-23T19:14:03.980Z,15.10
2023-02-23T19:19:08.548Z,24.80
2023-02-23T19:24:11.447Z,14.70
2023-02-23T19:29:14.252Z,18.00
2023-02-23T19:34:17.160Z,21.50
2023-02-23T19:39:20.199Z,17.80
2023-02-23T19:44:23.069Z,21.20
2023-02-23T19:49:26.178Z,24.10
2023-02-23T19:54:34.131Z,14.30
2023-02-23T19:59:37.937Z,18.40
2023-02-23T20:04:40.935Z,21.30
2023-02-23T20:09:44.554Z,23.60
2023-02-23T20:14:49.723Z,20.80
2023-02-23T20:19:52.998Z,22.00
2023-02-23T20:24:57.153Z,23.40
2023-02-23T20:30:00.476Z,20.40
2023-02-23T20:35:03.578Z,23.60
2023-02-23T20:40:18.677Z,24.90
2023-02-23T20:45:24.741Z,24.60
2023-02-23T20:50:34.056Z,23.20
2023-02-23T20:55:37.419Z,21.70
2023-02-23T21:00:40.627Z,17.90
2023-02-23T21:05:43.539Z,20.70
2023-02-23T21:10:48.915Z,22.00
2023-02-23T21:16:01.300Z,23.20
2023-02-23T21:21:10.030Z,18.10
2023-02-23T21:26:16.265Z,22.60
2023-02-23T21:31:19.631Z,29.50
2023-02-23T21:36:23.306Z,29.40
2023-02-23T21:41:27.721Z,26.30
2023-02-23T21:46:32.398Z,27.80
2023-02-23T21:51:36.806Z,30.20
2023-02-23T21:56:39.818Z,20.10
2023-02-23T22:01:43.704Z,26.40
2023-02-23T22:06:46.751Z,24.30
2023-02-23T22:11:50.163Z,30.40
2023-02-23T22:16:53.067Z,17.70
2023-02-23T22:21:55.971Z,25.70
2023-02-23T22:27:01.129Z,27.90
2023-02-23T22:32:04.225Z,33.70
2023-02-23T22:37:07.653Z,30.90
2023-02-23T22:42:12.922Z,29.80
2023-02-23T22:47:15.919Z,30.10
2023-02-23T22:52:18.841Z,33.30
2023-02-23T22:57:21.933Z,40.40
2023-02-23T23:02:24.936Z,33.00
2023-02-23T23:07:29.071Z,35.00
2023-02-23T23:12:34.427Z,28.30
2023-02-23T23:17:38.148Z,23.90
2023-02-23T23:22:41.256Z,41.00
2023-02-23T23:27:47.692Z,33.40
2023-02-23T23:32:50.627Z,37.70
2023-02-23T23:37:53.773Z,29.70
2023-02-23T23:42:56.665Z,37.60
2023-02-23T23:47:59.572Z,39.30
2023-02-23T23:53:04.696Z,33.20
2023-02-23T23:58:07.524Z,43.50
